createdAt,value
2018-09-10T00:00:55.789Z,3.17
2018-09-10T00:03:23.960Z,3.07
2018-09-10T00:05:52.093Z,3.17
2018-09-10T00:08:20.211Z,3.50
2018-09-10T00:10:48.371Z,2.80
2018-09-10T00:13:16.506Z,3.57
2018-09-10T00:15:44.622Z,3.60
2018-09-10T00:18:12.864Z,3.40
2018-09-10T00:20:40.976Z,4.33
2018-09-10T00:23:09.107Z,4.30
2018-09-10T00:25:37.243Z,4.27
2018-09-10T00:28:05.362Z,4.40
2018-09-10T00:30:33.478Z,4.30
2018-09-10T00:33:01.590Z,3.90
2018-09-10T00:35:29.781Z,3.50
2018-09-10T00:37:57.870Z,3.83
2018-09-10T00:40:25.987Z,3.70
2018-09-10T00:42:54.111Z,3.53
2018-09-10T00:45:22.247Z,3.57
2018-09-10T00:47:50.372Z,3.20
2018-09-10T00:50:18.501Z,3.93
2018-09-10T00:52:46.645Z,3.40
2018-09-10T00:55:14.772Z,3.10
2018-09-10T00:57:42.932Z,3.47
2018-09-10T01:00:11.154Z,3.63
2018-09-10T01:02:39.310Z,3.07
2018-09-10T01:05:07.434Z,3.33
2018-09-10T01:07:35.559Z,3.23
2018-09-10T01:10:03.734Z,3.07
2018-09-10T01:12:31.834Z,3.50
2018-09-10T01:15:00.039Z,3.10
2018-09-10T01:17:28.180Z,3.67
2018-09-10T01:19:56.311Z,3.30
2018-09-10T01:22:24.443Z,3.70
2018-09-10T01:24:52.579Z,3.60
2018-09-10T01:27:20.727Z,4.00
2018-09-10T01:29:48.885Z,4.00
2018-09-10T01:32:17.035Z,3.67
2018-09-10T01:34:50.438Z,4.10
2018-09-10T01:37:18.783Z,3.63
2018-09-10T01:39:46.904Z,3.80
2018-09-10T01:42:15.015Z,3.30
2018-09-10T01:44:43.155Z,3.60
2018-09-10T01:47:11.316Z,3.50
2018-09-10T01:49:39.450Z,4.17
2018-09-10T01:52:07.583Z,4.00
2018-09-10T01:54:35.747Z,3.40
2018-09-10T01:57:03.861Z,3.43
2018-09-10T01:59:31.978Z,3.43
2018-09-10T02:02:00.090Z,3.57
2018-09-10T02:04:28.194Z,3.30
2018-09-10T02:06:56.323Z,3.40
2018-09-10T02:09:24.426Z,3.90
2018-09-10T02:11:52.545Z,3.83
2018-09-10T02:14:20.675Z,3.50
2018-09-10T02:16:48.818Z,3.63
2018-09-10T02:19:16.924Z,3.50
2018-09-10T02:21:45.064Z,3.33
2018-09-10T02:24:13.173Z,3.30
2018-09-10T02:26:41.334Z,3.60
2018-09-10T02:29:09.469Z,3.17
2018-09-10T02:31:37.588Z,3.60
2018-09-10T02:34:05.692Z,3.60
2018-09-10T02:36:33.810Z,3.30
2018-09-10T02:39:01.951Z,4.10
2018-09-10T02:41:30.088Z,3.43
2018-09-10T02:43:58.234Z,3.60
2018-09-10T02:46:26.347Z,3.63
2018-09-10T02:48:54.466Z,3.70
2018-09-10T02:51:22.575Z,3.47
2018-09-10T02:53:50.682Z,3.17
2018-09-10T02:56:18.817Z,3.17
2018-09-10T02:58:46.914Z,2.93
2018-09-10T03:01:15.017Z,2.83
2018-09-10T03:03:43.181Z,2.50
2018-09-10T03:06:11.294Z,2.80
2018-09-10T03:08:39.407Z,2.50
2018-09-10T03:11:07.517Z,3.17
2018-09-10T03:13:35.625Z,2.60
2018-09-10T03:16:03.755Z,2.70
2018-09-10T03:18:31.947Z,2.37
2018-09-10T03:21:01.017Z,2.53
2018-09-10T03:23:29.129Z,2.60
2018-09-10T03:25:57.306Z,2.70
2018-09-10T03:28:25.389Z,3.20
2018-09-10T03:30:53.505Z,3.60
2018-09-10T03:33:21.619Z,3.27
2018-09-10T03:35:49.733Z,2.90
2018-09-10T03:38:17.841Z,3.63
2018-09-10T03:40:45.963Z,3.07
2018-09-10T03:43:14.073Z,3.30
2018-09-10T03:45:42.185Z,3.33
2018-09-10T03:48:10.351Z,3.23
2018-09-10T03:50:38.471Z,3.33
2018-09-10T03:53:06.782Z,3.40
2018-09-10T03:55:34.906Z,3.40
2018-09-10T03:58:03.018Z,3.37
2018-09-10T04:00:31.154Z,3.40
2018-09-10T04:02:59.275Z,3.33
2018-09-10T04:05:27.388Z,3.23
2018-09-10T04:07:55.517Z,3.37
2018-09-10T04:10:23.627Z,3.77
2018-09-10T04:12:51.757Z,3.50
2018-09-10T04:15:19.868Z,3.40
2018-09-10T04:17:47.986Z,4.37
2018-09-10T04:20:16.090Z,3.67
2018-09-10T04:22:44.228Z,4.20
2018-09-10T04:25:12.321Z,3.70
2018-09-10T04:27:40.428Z,3.50
2018-09-10T04:30:13.574Z,3.50
2018-09-10T04:32:41.675Z,4.37
2018-09-10T04:35:10.326Z,3.60
2018-09-10T04:37:38.832Z,3.70
2018-09-10T04:40:07.510Z,3.50
2018-09-10T04:42:35.630Z,3.43
2018-09-10T04:45:03.999Z,3.67
2018-09-10T04:47:32.277Z,3.60
2018-09-10T04:50:00.399Z,3.87
2018-09-10T04:52:28.509Z,3.90
2018-09-10T04:54:56.637Z,3.67
2018-09-10T04:57:24.809Z,3.20
2018-09-10T04:59:52.950Z,3.77
2018-09-10T05:02:21.049Z,3.80
2018-09-10T05:04:49.153Z,3.43
2018-09-10T05:07:17.271Z,3.60
2018-09-10T05:09:45.377Z,3.53
2018-09-10T05:12:13.486Z,3.50
2018-09-10T05:14:41.606Z,3.90
2018-09-10T05:17:09.754Z,3.70
2018-09-10T05:19:37.841Z,3.60
2018-09-10T05:22:06.526Z,3.60
2018-09-10T05:24:34.536Z,3.77
2018-09-10T05:27:02.662Z,3.70
2018-09-10T05:29:30.805Z,3.47
2018-09-10T05:31:58.946Z,3.60
2018-09-10T05:34:27.098Z,3.40
2018-09-10T05:36:55.326Z,3.57
2018-09-10T05:39:23.539Z,3.33
2018-09-10T05:41:51.664Z,3.47
2018-09-10T05:44:19.764Z,3.97
2018-09-10T05:46:47.874Z,3.23
2018-09-10T05:49:15.978Z,3.33
2018-09-10T05:51:44.197Z,3.40
2018-09-10T05:54:12.301Z,3.80
2018-09-10T05:56:40.414Z,3.40
2018-09-10T05:59:08.545Z,3.83
2018-09-10T06:01:36.644Z,3.90
2018-09-10T06:04:04.770Z,3.40
2018-09-10T06:06:32.885Z,4.17
2018-09-10T06:09:01.028Z,4.10
2018-09-10T06:11:29.147Z,4.03
2018-09-10T06:13:57.241Z,4.33
2018-09-10T06:16:25.352Z,4.07
2018-09-10T06:18:53.465Z,3.70
2018-09-10T06:21:21.561Z,3.40
2018-09-10T06:23:49.670Z,3.63
2018-09-10T06:26:17.791Z,3.97
2018-09-10T06:28:45.916Z,4.20
2018-09-10T06:31:14.046Z,3.80
2018-09-10T06:33:42.138Z,3.63
2018-09-10T06:36:10.247Z,3.50
2018-09-10T06:38:38.437Z,3.80
2018-09-10T06:41:06.596Z,4.20
2018-09-10T06:43:34.710Z,4.00
2018-09-10T06:46:02.879Z,4.10
2018-09-10T06:48:34.576Z,3.90
2018-09-10T06:51:03.958Z,5.03
2018-09-10T06:53:32.128Z,5.43
2018-09-10T06:56:00.438Z,5.03
2018-09-10T06:58:28.567Z,5.93
2018-09-10T07:00:56.692Z,6.00
2018-09-10T07:03:24.933Z,6.40
2018-09-10T07:05:53.039Z,7.03
2018-09-10T07:08:21.174Z,7.63
2018-09-10T07:10:49.280Z,7.77
2018-09-10T07:13:17.415Z,8.30
2018-09-10T07:15:45.518Z,8.30
2018-09-10T07:18:13.638Z,7.57
2018-09-10T07:20:41.742Z,6.23
2018-09-10T07:23:09.874Z,5.83
2018-09-10T07:25:38.105Z,5.33
2018-09-10T07:28:06.233Z,5.37
2018-09-10T07:30:34.343Z,4.00
2018-09-10T07:33:02.472Z,4.13
2018-09-10T07:35:30.833Z,4.70
2018-09-10T07:37:58.926Z,4.20
2018-09-10T07:40:27.025Z,5.10
2018-09-10T07:42:55.152Z,4.07
2018-09-10T07:45:23.254Z,4.13
2018-09-10T07:47:51.373Z,3.83
2018-09-10T07:50:19.485Z,3.77
2018-09-10T07:52:47.624Z,3.90
2018-09-10T07:55:15.734Z,4.23
2018-09-10T07:57:43.842Z,4.23
2018-09-10T08:00:11.963Z,4.20
2018-09-10T08:02:40.107Z,4.20
2018-09-10T08:05:08.241Z,4.30
2018-09-10T08:07:36.340Z,4.40
2018-09-10T08:10:04.450Z,4.40
2018-09-10T08:12:32.557Z,4.10
2018-09-10T08:15:00.683Z,4.10
2018-09-10T08:17:28.844Z,3.93
2018-09-10T08:19:56.961Z,3.80
2018-09-10T08:22:25.081Z,3.80
2018-09-10T08:24:53.186Z,3.90
2018-09-10T08:27:21.336Z,3.97
2018-09-10T08:29:49.466Z,4.00
2018-09-10T08:32:17.564Z,4.20
2018-09-10T08:34:45.704Z,3.47
2018-09-10T08:37:13.801Z,3.77
2018-09-10T08:39:41.917Z,3.30
2018-09-10T08:42:10.026Z,3.73
2018-09-10T08:44:38.174Z,3.33
2018-09-10T08:47:06.273Z,4.10
2018-09-10T08:49:34.411Z,3.53
2018-09-10T08:52:02.537Z,4.23
2018-09-10T08:54:30.833Z,4.23
2018-09-10T08:56:58.807Z,3.80
2018-09-10T08:59:26.953Z,4.33
2018-09-10T09:01:55.189Z,4.10
2018-09-10T09:04:23.216Z,4.97
2018-09-10T09:06:51.453Z,4.43
2018-09-10T09:09:19.603Z,3.80
2018-09-10T09:11:47.697Z,4.50
2018-09-10T09:14:15.805Z,3.60
2018-09-10T09:16:43.942Z,4.93
2018-09-10T09:19:12.074Z,4.60
2018-09-10T09:21:40.172Z,4.00
2018-09-10T09:24:08.282Z,3.70
2018-09-10T09:26:36.573Z,3.70
2018-09-10T09:29:04.685Z,3.60
2018-09-10T09:31:32.790Z,4.50
2018-09-10T09:34:00.910Z,3.83
2018-09-10T09:36:34.360Z,3.63
2018-09-10T09:39:08.001Z,3.57
2018-09-10T09:41:41.729Z,3.30
2018-09-10T09:44:15.325Z,3.60
2018-09-10T09:46:43.439Z,3.20
2018-09-10T09:49:11.563Z,3.63
2018-09-10T09:51:39.686Z,4.40
2018-09-10T09:54:07.810Z,4.10
2018-09-10T09:56:36.055Z,3.57
2018-09-10T09:59:04.120Z,3.97
2018-09-10T10:01:37.686Z,3.70
2018-09-10T10:04:09.493Z,3.40
2018-09-10T10:06:37.631Z,3.80
2018-09-10T10:09:09.615Z,3.33
2018-09-10T10:11:38.095Z,3.70
2018-09-10T10:14:07.029Z,3.60
2018-09-10T10:16:35.144Z,3.10
2018-09-10T10:19:03.267Z,2.83
2018-09-10T10:21:31.397Z,3.00
2018-09-10T10:23:59.642Z,3.13
2018-09-10T10:26:27.758Z,3.20
2018-09-10T10:28:55.879Z,4.00
2018-09-10T10:31:23.991Z,3.53
2018-09-10T10:33:52.107Z,4.13
2018-09-10T10:36:20.294Z,3.17
2018-09-10T10:38:48.431Z,3.87
2018-09-10T10:41:16.546Z,3.47
2018-09-10T10:43:44.650Z,3.50
2018-09-10T10:46:12.767Z,3.73
2018-09-10T10:48:40.903Z,3.70
2018-09-10T10:51:09.013Z,3.23
2018-09-10T10:53:37.185Z,3.53
2018-09-10T10:56:05.320Z,3.47
2018-09-10T10:58:33.431Z,4.07
2018-09-10T11:01:01.599Z,3.30
2018-09-10T11:03:29.788Z,3.30
2018-09-10T11:05:57.965Z,3.63
2018-09-10T11:08:26.075Z,3.40
2018-09-10T11:10:54.224Z,3.60
2018-09-10T11:13:22.345Z,4.07
2018-09-10T11:15:50.456Z,3.33
2018-09-10T11:18:18.637Z,4.10
2018-09-10T11:20:46.777Z,3.30
2018-09-10T11:23:14.929Z,3.57
2018-09-10T11:25:43.094Z,3.40
2018-09-10T11:28:11.210Z,2.93
2018-09-10T11:30:39.350Z,3.53
2018-09-10T11:33:07.459Z,2.93
2018-09-10T11:35:35.578Z,3.30
2018-09-10T11:38:03.714Z,3.37
2018-09-10T11:40:31.887Z,3.30
2018-09-10T11:42:59.986Z,3.10
2018-09-10T11:45:28.162Z,2.97
2018-09-10T11:47:56.362Z,3.07
2018-09-10T11:50:24.481Z,3.00
2018-09-10T11:52:52.602Z,3.37
2018-09-10T11:55:20.907Z,3.13
2018-09-10T11:57:49.013Z,4.80
2018-09-10T12:00:17.130Z,2.70
2018-09-10T12:02:45.260Z,2.97
2018-09-10T12:05:13.389Z,2.73
2018-09-10T12:07:41.509Z,3.10
2018-09-10T12:10:09.627Z,2.67
2018-09-10T12:12:37.834Z,3.07
2018-09-10T12:15:06.188Z,2.03
2018-09-10T12:17:34.315Z,2.87
2018-09-10T12:20:02.422Z,2.70
2018-09-10T12:22:30.566Z,2.50
2018-09-10T12:24:58.674Z,2.70
2018-09-10T12:27:26.820Z,2.90
2018-09-10T12:29:54.960Z,2.53
2018-09-10T12:32:23.093Z,2.80
2018-09-10T12:34:51.260Z,2.40
2018-09-10T12:37:19.402Z,2.93
2018-09-10T12:39:47.631Z,3.87
2018-09-10T12:42:15.695Z,3.67
2018-09-10T12:44:43.804Z,3.50
2018-09-10T12:47:11.983Z,3.80
2018-09-10T12:49:40.262Z,3.73
2018-09-10T12:52:08.426Z,4.30
2018-09-10T12:54:36.573Z,4.23
2018-09-10T12:57:04.850Z,4.03
2018-09-10T12:59:32.958Z,4.60
2018-09-10T13:02:01.117Z,4.20
2018-09-10T13:04:29.227Z,4.10
2018-09-10T13:06:57.374Z,4.03
2018-09-10T13:09:25.490Z,3.87
2018-09-10T13:11:53.714Z,4.03
2018-09-10T13:14:21.855Z,4.37
2018-09-10T13:16:49.986Z,4.87
2018-09-10T13:19:18.096Z,4.40
2018-09-10T13:21:46.292Z,4.67
2018-09-10T13:24:14.632Z,4.27
2018-09-10T13:26:42.778Z,4.20
2018-09-10T13:29:10.907Z,4.40
2018-09-10T13:31:39.035Z,4.27
2018-09-10T13:34:07.142Z,4.13
2018-09-10T13:36:35.308Z,4.07
2018-09-10T13:39:04.810Z,3.87
2018-09-10T13:41:32.966Z,3.33
2018-09-10T13:44:01.099Z,3.70
2018-09-10T13:46:29.213Z,3.80
2018-09-10T13:48:57.334Z,3.80
2018-09-10T13:51:25.650Z,3.60
2018-09-10T13:53:53.757Z,3.90
2018-09-10T13:56:21.906Z,3.57
2018-09-10T13:58:50.146Z,3.37
2018-09-10T14:01:18.412Z,3.70
2018-09-10T14:03:46.605Z,3.93
2018-09-10T14:06:14.891Z,4.07
2018-09-10T14:08:43.014Z,3.60
2018-09-10T14:11:11.179Z,3.80
2018-09-10T14:13:39.306Z,3.47
2018-09-10T14:16:07.413Z,3.57
2018-09-10T14:18:35.633Z,4.10
2018-09-10T14:21:07.867Z,3.83
2018-09-10T14:23:35.982Z,3.70
2018-09-10T14:26:05.145Z,3.93
2018-09-10T14:28:33.432Z,4.20
2018-09-10T14:31:01.605Z,3.63
2018-09-10T14:33:29.753Z,3.73
2018-09-10T14:35:57.981Z,3.70
2018-09-10T14:38:26.357Z,4.43
2018-09-10T14:40:54.484Z,3.70
2018-09-10T14:43:22.607Z,3.97
2018-09-10T14:45:50.821Z,4.33
2018-09-10T14:48:18.934Z,3.57
2018-09-10T14:50:47.061Z,4.00
2018-09-10T14:53:15.335Z,3.70
2018-09-10T14:55:43.541Z,4.40
2018-09-10T14:58:11.654Z,4.60
2018-09-10T15:00:39.783Z,4.23
2018-09-10T15:03:07.914Z,4.50
2018-09-10T15:05:36.029Z,3.77
2018-09-10T15:08:04.167Z,4.30
2018-09-10T15:10:32.265Z,3.83
2018-09-10T15:13:00.391Z,3.93
2018-09-10T15:15:28.563Z,4.23
2018-09-10T15:17:56.665Z,4.43
2018-09-10T15:20:24.796Z,4.63
2018-09-10T15:22:52.931Z,4.10
2018-09-10T15:25:21.107Z,4.67
2018-09-10T15:27:49.206Z,4.80
2018-09-10T15:30:17.299Z,4.20
2018-09-10T15:32:46.399Z,4.80
2018-09-10T15:35:14.530Z,4.20
2018-09-10T15:37:42.687Z,4.30
2018-09-10T15:40:10.870Z,4.10
2018-09-10T15:42:39.030Z,4.13
2018-09-10T15:45:07.486Z,4.03
2018-09-10T15:47:35.560Z,4.43
2018-09-10T15:50:03.683Z,4.10
2018-09-10T15:52:31.865Z,4.13
2018-09-10T15:54:59.957Z,3.67
2018-09-10T15:57:28.893Z,3.97
2018-09-10T15:59:57.033Z,3.50
2018-09-10T16:02:25.142Z,3.90
2018-09-10T16:04:53.250Z,4.00
2018-09-10T16:07:21.463Z,3.87
2018-09-10T16:09:49.490Z,3.50
2018-09-10T16:12:17.877Z,3.40
2018-09-10T16:14:45.995Z,3.33
2018-09-10T16:17:14.106Z,3.30
2018-09-10T16:19:42.311Z,3.23
2018-09-10T16:22:10.467Z,3.50
2018-09-10T16:24:38.590Z,3.40
2018-09-10T16:27:06.975Z,3.80
2018-09-10T16:29:35.349Z,3.37
2018-09-10T16:32:03.494Z,3.30
2018-09-10T16:34:31.599Z,3.50
2018-09-10T16:36:59.722Z,3.40
2018-09-10T16:39:27.862Z,3.13
2018-09-10T16:41:55.991Z,3.23
2018-09-10T16:44:24.094Z,3.23
2018-09-10T16:46:52.207Z,3.23
2018-09-10T16:49:20.325Z,3.87
2018-09-10T16:51:48.434Z,3.30
2018-09-10T16:54:16.609Z,3.00
2018-09-10T16:56:44.667Z,3.07
2018-09-10T16:59:12.816Z,2.60
2018-09-10T17:01:40.942Z,3.23
2018-09-10T17:04:09.109Z,2.90
2018-09-10T17:06:37.215Z,3.00
2018-09-10T17:09:06.830Z,3.13
2018-09-10T17:11:34.964Z,3.37
2018-09-10T17:14:03.097Z,3.10
2018-09-10T17:16:31.185Z,3.50
2018-09-10T17:18:59.298Z,3.10
2018-09-10T17:21:27.415Z,3.53
2018-09-10T17:23:55.543Z,3.10
2018-09-10T17:26:23.650Z,3.10
2018-09-10T17:28:51.824Z,3.13
2018-09-10T17:31:19.925Z,3.00
2018-09-10T17:33:48.053Z,2.90
2018-09-10T17:36:16.154Z,3.20
2018-09-10T17:38:44.302Z,3.60
2018-09-10T17:41:12.382Z,2.80
2018-09-10T17:43:40.565Z,2.97
2018-09-10T17:46:08.710Z,3.23
2018-09-10T17:48:36.907Z,2.87
2018-09-10T17:51:05.113Z,3.00
2018-09-10T17:53:33.250Z,3.00
2018-09-10T17:56:01.347Z,2.77
2018-09-10T17:58:29.458Z,2.60
2018-09-10T18:00:57.709Z,2.90
2018-09-10T18:03:25.856Z,2.90
2018-09-10T18:05:54.012Z,2.73
2018-09-10T18:08:22.118Z,3.23
2018-09-10T18:10:50.284Z,2.90
2018-09-10T18:13:18.361Z,2.90
2018-09-10T18:15:46.476Z,3.13
2018-09-10T18:18:14.596Z,2.80
2018-09-10T18:20:42.694Z,3.20
2018-09-10T18:23:10.805Z,2.57
2018-09-10T18:25:38.930Z,2.97
2018-09-10T18:28:07.051Z,2.90
2018-09-10T18:30:35.171Z,2.70
2018-09-10T18:33:03.289Z,3.60
2018-09-10T18:35:31.408Z,3.27
2018-09-10T18:37:59.490Z,3.07
2018-09-10T18:40:27.590Z,3.17
2018-09-10T18:42:55.708Z,3.50
2018-09-10T18:45:23.842Z,3.30
2018-09-10T18:47:51.960Z,3.50
2018-09-10T18:50:20.070Z,3.30
2018-09-10T18:52:48.174Z,3.57
2018-09-10T18:55:16.319Z,3.20
2018-09-10T18:57:44.409Z,3.40
2018-09-10T19:00:12.543Z,3.53
2018-09-10T19:02:40.726Z,3.80
2018-09-10T19:05:08.871Z,3.30
2018-09-10T19:07:37.085Z,3.47
2018-09-10T19:10:05.515Z,3.40
2018-09-10T19:12:33.626Z,3.10
2018-09-10T19:15:01.743Z,3.70
2018-09-10T19:17:29.885Z,4.20
2018-09-10T19:19:57.994Z,3.90
2018-09-10T19:22:26.104Z,4.30
2018-09-10T19:24:54.207Z,4.53
2018-09-10T19:27:22.421Z,4.17
2018-09-10T19:29:50.598Z,4.30
2018-09-10T19:32:18.806Z,4.70
2018-09-10T19:34:46.991Z,4.17
2018-09-10T19:37:15.090Z,4.43
2018-09-10T19:39:43.193Z,4.43
2018-09-10T19:42:11.299Z,4.50
2018-09-10T19:44:39.462Z,4.10
2018-09-10T19:47:07.650Z,4.10
2018-09-10T19:49:35.815Z,3.87
2018-09-10T19:52:03.920Z,4.50
2018-09-10T19:54:32.029Z,4.53
2018-09-10T19:57:00.145Z,3.80
2018-09-10T19:59:28.312Z,3.90
2018-09-10T20:01:56.522Z,4.37
2018-09-10T20:04:24.618Z,3.80
2018-09-10T20:06:52.739Z,4.43
2018-09-10T20:09:20.886Z,4.47
2018-09-10T20:11:49.004Z,4.30
2018-09-10T20:14:17.097Z,4.77
2018-09-10T20:16:45.202Z,4.70
2018-09-10T20:19:13.363Z,5.10
2018-09-10T20:21:41.596Z,4.87
2018-09-10T20:24:09.687Z,4.50
2018-09-10T20:26:37.795Z,4.73
2018-09-10T20:29:06.042Z,4.30
2018-09-10T20:31:34.148Z,4.40
2018-09-10T20:34:06.214Z,4.30
2018-09-10T20:36:35.166Z,4.80
2018-09-10T20:39:04.743Z,4.33
2018-09-10T20:41:32.845Z,4.60
2018-09-10T20:44:00.944Z,4.97
2018-09-10T20:46:29.111Z,4.67
2018-09-10T20:48:57.223Z,4.60
2018-09-10T20:51:25.338Z,4.53
2018-09-10T20:53:53.463Z,4.27
2018-09-10T20:56:21.586Z,4.70
2018-09-10T20:58:49.708Z,4.03
2018-09-10T21:01:17.858Z,4.47
2018-09-10T21:03:46.074Z,4.43
2018-09-10T21:06:14.186Z,4.63
2018-09-10T21:08:42.304Z,4.60
2018-09-10T21:11:10.453Z,4.40
2018-09-10T21:13:38.585Z,4.77
2018-09-10T21:16:06.882Z,4.30
2018-09-10T21:18:35.014Z,4.50
2018-09-10T21:21:03.113Z,4.67
2018-09-10T21:23:31.282Z,4.73
2018-09-10T21:25:59.418Z,4.80
2018-09-10T21:31:01.970Z,4.87
2018-09-10T21:33:30.077Z,4.90
2018-09-10T21:35:58.190Z,4.97
2018-09-10T21:38:26.347Z,4.80
2018-09-10T21:40:54.474Z,5.10
2018-09-10T21:43:22.631Z,5.10
2018-09-10T21:45:50.736Z,5.00
2018-09-10T21:48:18.848Z,4.57
2018-09-10T21:50:46.949Z,5.27
2018-09-10T21:53:15.173Z,5.10
2018-09-10T21:55:43.270Z,4.80
2018-09-10T21:58:11.404Z,4.80
2018-09-10T22:00:44.743Z,4.93
2018-09-10T22:03:12.862Z,5.00
2018-09-10T22:05:40.958Z,4.87
2018-09-10T22:08:09.079Z,4.50
2018-09-10T22:10:37.483Z,5.00
2018-09-10T22:13:05.531Z,4.57
2018-09-10T22:15:33.640Z,4.80
2018-09-10T22:18:01.782Z,5.27
2018-09-10T22:20:29.950Z,5.23
2018-09-10T22:22:58.122Z,5.10
2018-09-10T22:25:26.254Z,4.80
2018-09-10T22:27:54.411Z,4.60
2018-09-10T22:30:22.511Z,5.10
2018-09-10T22:32:50.858Z,5.03
2018-09-10T22:35:18.990Z,5.10
2018-09-10T22:37:47.150Z,5.03
2018-09-10T22:40:15.274Z,5.12
2018-09-10T22:42:43.381Z,4.73
2018-09-10T22:45:11.513Z,5.13
2018-09-10T22:47:39.633Z,5.27
2018-09-10T22:50:07.750Z,5.00
2018-09-10T22:52:35.889Z,4.93
2018-09-10T22:55:04.013Z,4.63
2018-09-10T22:57:32.122Z,4.80
2018-09-10T23:00:00.250Z,5.10
2018-09-10T23:02:28.386Z,5.03
2018-09-10T23:04:56.486Z,5.30
2018-09-10T23:07:24.682Z,4.60
2018-09-10T23:09:52.973Z,5.13
2018-09-10T23:12:21.391Z,4.57
2018-09-10T23:14:49.533Z,4.77
2018-09-10T23:17:17.692Z,4.77
2018-09-10T23:19:45.874Z,4.93
2018-09-10T23:22:14.052Z,4.80
2018-09-10T23:24:42.203Z,4.60
2018-09-10T23:27:10.323Z,4.80
2018-09-10T23:29:38.468Z,4.70
2018-09-10T23:32:06.590Z,4.83
2018-09-10T23:34:34.774Z,5.10
2018-09-10T23:37:02.906Z,5.00
2018-09-10T23:39:31.083Z,5.03
2018-09-10T23:41:59.237Z,5.17
2018-09-10T23:44:27.343Z,5.47
2018-09-10T23:46:55.511Z,5.30
2018-09-10T23:49:23.642Z,5.43
2018-09-10T23:51:51.772Z,4.87
2018-09-10T23:54:19.903Z,5.30
2018-09-10T23:56:48.002Z,5.30
2018-09-10T23:59:16.111Z,5.93
